createdAt,value
2022-11-07T00:00:02.904Z,14.80
2022-11-07T00:05:30.024Z,16.70
2022-11-07T00:10:37.168Z,16.70
2022-11-07T00:20:49.649Z,17.50
2022-11-07T00:26:02.167Z,14.20
2022-11-07T00:31:10.891Z,15.20
2022-11-07T00:36:22.823Z,15.60
2022-11-07T00:41:30.182Z,14.60
2022-11-07T00:46:37.842Z,15.20
2022-11-07T00:51:45.250Z,15.20
2022-11-07T00:56:53.242Z,13.90
2022-11-07T01:02:01.185Z,15.10
2022-11-07T01:07:09.117Z,14.80
2022-11-07T01:12:17.031Z,14.20
2022-11-07T01:17:24.737Z,12.20
2022-11-07T01:22:31.753Z,14.60
2022-11-07T01:32:44.498Z,14.90
2022-11-07T01:37:51.889Z,16.60
2022-11-07T01:43:00.213Z,14.50
2022-11-07T01:48:08.142Z,13.70
2022-11-07T01:53:15.865Z,14.30
2022-11-07T01:58:23.274Z,14.80
2022-11-07T02:03:30.696Z,14.80
2022-11-07T02:08:40.368Z,12.90
2022-11-07T02:13:47.755Z,14.80
2022-11-07T02:18:54.834Z,13.80
2022-11-07T02:29:14.122Z,12.80
2022-11-07T02:34:21.389Z,12.60
2022-11-07T02:39:29.260Z,14.00
2022-11-07T02:44:36.763Z,14.20
2022-11-07T02:49:43.753Z,14.20
2022-11-07T02:59:57.931Z,14.20
2022-11-07T03:05:05.633Z,13.90
2022-11-07T03:10:14.499Z,17.40
2022-11-07T03:15:22.250Z,18.00
2022-11-07T03:20:29.569Z,19.60
2022-11-07T03:25:36.737Z,16.60
2022-11-07T03:30:43.749Z,18.30
2022-11-07T03:35:51.203Z,19.70
2022-11-07T03:40:58.809Z,20.10
2022-11-07T03:46:06.637Z,18.00
2022-11-07T03:51:13.826Z,17.80
2022-11-07T03:56:21.187Z,16.50
2022-11-07T04:06:34.305Z,18.70
2022-11-07T04:17:20.550Z,18.00
2022-11-07T04:22:28.781Z,16.70
2022-11-07T04:27:47.101Z,16.30
2022-11-07T04:32:57.216Z,16.60
2022-11-07T04:38:05.132Z,15.20
2022-11-07T04:43:13.150Z,15.50
2022-11-07T04:48:21.158Z,15.10
2022-11-07T04:53:28.227Z,15.50
2022-11-07T05:03:42.262Z,15.90
2022-11-07T05:08:49.760Z,17.40
2022-11-07T05:13:57.945Z,15.50
2022-11-07T05:19:05.179Z,16.40
2022-11-07T05:24:12.940Z,15.40
2022-11-07T05:29:20.404Z,16.00
2022-11-07T05:34:28.524Z,15.80
2022-11-07T05:39:35.973Z,14.70
2022-11-07T05:44:44.524Z,18.20
2022-11-07T05:49:52.109Z,17.50
2022-11-07T05:54:59.162Z,18.80
2022-11-07T06:00:08.903Z,18.80
2022-11-07T06:05:19.359Z,16.70
2022-11-07T06:10:30.613Z,19.40
2022-11-07T06:15:39.521Z,18.70
2022-11-07T06:20:47.438Z,18.60
2022-11-07T06:25:55.224Z,16.10
2022-11-07T06:31:05.223Z,17.20
2022-11-07T06:36:14.580Z,17.90
2022-11-07T06:41:22.453Z,16.10
2022-11-07T06:46:29.599Z,17.80
2022-11-07T06:51:36.994Z,16.70
2022-11-07T06:56:44.292Z,17.30
2022-11-07T07:01:52.416Z,17.40
2022-11-07T07:06:59.605Z,17.90
2022-11-07T07:12:07.752Z,15.70
2022-11-07T07:17:15.307Z,17.80
2022-11-07T07:22:22.676Z,17.00
2022-11-07T07:27:30.559Z,17.00
2022-11-07T07:32:40.164Z,17.70
2022-11-07T07:37:50.095Z,17.10
2022-11-07T07:42:57.675Z,16.60
2022-11-07T07:48:05.405Z,16.90
2022-11-07T07:53:12.996Z,17.30
2022-11-07T07:58:20.087Z,16.40
2022-11-07T08:03:39.696Z,17.10
2022-11-07T08:08:56.950Z,18.80
2022-11-07T08:14:04.115Z,17.30
2022-11-07T08:19:11.347Z,16.50
2022-11-07T08:24:18.438Z,18.10
2022-11-07T08:29:25.734Z,18.30
2022-11-07T08:34:33.226Z,17.90
2022-11-07T08:39:40.188Z,16.10
2022-11-07T08:49:53.621Z,11.10
2022-11-07T09:00:44.983Z,11.80
2022-11-07T09:05:52.976Z,9.60
2022-11-07T09:11:04.413Z,10.50
2022-11-07T09:16:22.499Z,12.20
2022-11-07T09:21:32.478Z,11.20
2022-11-07T09:26:39.551Z,9.10
2022-11-07T09:31:47.041Z,10.20
2022-11-07T09:36:54.037Z,11.00
2022-11-07T09:47:22.734Z,11.50
2022-11-07T09:52:38.770Z,10.70
2022-11-07T09:57:46.703Z,11.80
2022-11-07T10:02:58.001Z,11.30
2022-11-07T10:08:11.693Z,9.60
2022-11-07T10:13:37.528Z,10.30
2022-11-07T10:18:55.148Z,8.20
2022-11-07T10:24:18.157Z,7.70
2022-11-07T10:29:29.173Z,7.80
2022-11-07T10:34:42.946Z,5.90
2022-11-07T10:39:50.059Z,5.40
2022-11-07T10:44:59.883Z,6.40
2022-11-07T10:50:20.854Z,6.20
2022-11-07T10:55:28.749Z,6.40
2022-11-07T11:00:39.623Z,5.00
2022-11-07T11:05:47.882Z,4.60
2022-11-07T11:10:55.120Z,4.70
2022-11-07T11:16:21.452Z,5.20
2022-11-07T11:21:39.675Z,4.70
2022-11-07T11:26:49.796Z,3.30
2022-11-07T11:31:59.946Z,4.10
2022-11-07T11:37:12.294Z,3.60
2022-11-07T11:42:27.939Z,3.80
2022-11-07T11:47:39.021Z,3.10
2022-11-07T11:52:47.069Z,3.60
2022-11-07T11:58:02.757Z,2.60
2022-11-07T12:03:27.760Z,3.10
2022-11-07T12:08:51.727Z,3.70
2022-11-07T12:14:09.158Z,3.70
2022-11-07T12:19:27.016Z,3.10
2022-11-07T12:24:46.068Z,4.00
2022-11-07T12:30:07.656Z,3.00
2022-11-07T12:35:30.780Z,3.90
2022-11-07T12:40:47.647Z,3.90
2022-11-07T12:46:06.459Z,3.70
2022-11-07T12:51:26.089Z,3.50
2022-11-07T12:56:37.472Z,3.40
2022-11-07T13:01:50.976Z,2.50
2022-11-07T13:07:05.934Z,4.00
2022-11-07T13:12:24.429Z,3.50
2022-11-07T13:17:43.788Z,3.20
2022-11-07T13:22:52.222Z,3.20
2022-11-07T13:28:21.132Z,3.60
2022-11-07T13:33:33.651Z,3.20
2022-11-07T13:38:49.838Z,3.80
2022-11-07T13:44:01.120Z,3.70
2022-11-07T13:49:13.275Z,4.10
2022-11-07T13:54:27.695Z,4.00
2022-11-07T13:59:45.089Z,4.60
2022-11-07T14:10:30.753Z,4.00
2022-11-07T14:15:44.948Z,3.50
2022-11-07T14:20:54.712Z,3.70
2022-11-07T14:26:04.531Z,4.00
2022-11-07T14:31:20.696Z,3.50
2022-11-07T14:36:29.451Z,4.40
2022-11-07T14:41:40.689Z,3.50
2022-11-07T14:46:48.780Z,3.50
2022-11-07T14:51:56.924Z,3.20
2022-11-07T14:57:05.837Z,4.10
2022-11-07T15:02:33.262Z,3.80
2022-11-07T15:07:49.832Z,3.50
2022-11-07T15:13:00.748Z,5.10
2022-11-07T15:18:25.537Z,3.90
2022-11-07T15:23:36.526Z,4.10
2022-11-07T15:28:51.575Z,3.80
2022-11-07T15:34:00.232Z,3.50
2022-11-07T15:39:07.889Z,4.20
2022-11-07T15:44:18.757Z,4.20
2022-11-07T15:49:26.870Z,4.10
2022-11-07T15:54:34.165Z,4.00
2022-11-07T15:59:44.846Z,5.10
2022-11-07T16:04:51.979Z,4.70
2022-11-07T16:09:59.275Z,4.50
2022-11-07T16:15:08.047Z,4.50
2022-11-07T16:20:19.127Z,4.60
2022-11-07T16:25:27.364Z,5.30
2022-11-07T16:30:37.386Z,5.10
2022-11-07T16:35:44.486Z,4.40
2022-11-07T16:40:51.971Z,4.80
2022-11-07T16:45:59.627Z,5.80
2022-11-07T16:51:07.347Z,5.80
2022-11-07T16:56:33.688Z,6.00
2022-11-07T17:01:40.978Z,6.40
2022-11-07T17:06:49.203Z,5.60
2022-11-07T17:11:56.213Z,6.50
2022-11-07T17:17:03.225Z,6.60
2022-11-07T17:27:24.209Z,6.80
2022-11-07T17:32:31.457Z,8.00
2022-11-07T17:37:39.182Z,7.20
2022-11-07T17:42:46.898Z,7.50
2022-11-07T17:47:54.415Z,6.40
2022-11-07T17:53:01.533Z,7.20
2022-11-07T17:58:08.655Z,6.40
2022-11-07T18:03:15.769Z,7.80
2022-11-07T18:13:51.258Z,8.40
2022-11-07T18:19:00.198Z,7.80
2022-11-07T18:24:08.586Z,7.50
2022-11-07T18:29:16.308Z,7.60
2022-11-07T18:34:23.430Z,8.10
2022-11-07T18:39:31.345Z,8.00
2022-11-07T18:44:38.743Z,8.30
2022-11-07T18:49:45.923Z,8.30
2022-11-07T18:54:53.005Z,8.60
2022-11-07T19:05:07.506Z,7.60
2022-11-07T19:10:16.091Z,10.20
2022-11-07T19:15:27.394Z,11.80
2022-11-07T19:20:34.494Z,12.40
2022-11-07T19:30:48.297Z,10.80
2022-11-07T19:41:11.457Z,9.30
2022-11-07T19:46:21.193Z,10.20
2022-11-07T19:51:28.420Z,8.70
2022-11-07T19:56:35.637Z,10.20
2022-11-07T20:06:50.509Z,10.50
2022-11-07T20:11:59.370Z,10.40
2022-11-07T20:17:07.368Z,11.40
2022-11-07T20:22:14.478Z,11.70
2022-11-07T20:27:21.472Z,11.30
2022-11-07T20:32:28.689Z,11.20
2022-11-07T20:42:41.859Z,12.00
2022-11-07T20:52:59.111Z,12.40
2022-11-07T20:58:07.163Z,15.80
2022-11-07T21:03:16.711Z,13.80
2022-11-07T21:08:26.876Z,13.90
2022-11-07T21:13:34.010Z,15.00
2022-11-07T21:23:47.787Z,14.90
2022-11-07T21:28:55.513Z,17.20
2022-11-07T21:34:02.597Z,14.40
2022-11-07T21:39:11.290Z,17.30
2022-11-07T21:44:18.510Z,15.00
2022-11-07T21:49:26.069Z,17.50
2022-11-07T21:54:36.764Z,17.50
2022-11-07T21:59:46.542Z,17.40
2022-11-07T22:04:54.431Z,16.80
2022-11-07T22:10:02.004Z,18.10
2022-11-07T22:15:11.714Z,18.20
2022-11-07T22:20:19.314Z,18.30
2022-11-07T22:25:27.011Z,17.70
2022-11-07T22:30:35.157Z,19.40
2022-11-07T22:35:43.940Z,20.30
2022-11-07T22:40:51.547Z,21.60
2022-11-07T22:46:05.978Z,22.60
2022-11-07T22:51:15.654Z,20.80
2022-11-07T22:56:24.036Z,21.80
2022-11-07T23:01:34.950Z,24.60
2022-11-07T23:06:42.231Z,24.30
2022-11-07T23:16:57.400Z,18.30
2022-11-07T23:22:04.509Z,22.70
2022-11-07T23:32:18.014Z,28.70
2022-11-07T23:37:25.479Z,27.70
2022-11-07T23:42:32.874Z,28.00
2022-11-07T23:47:58.133Z,27.80
2022-11-07T23:53:25.531Z,27.30
2022-11-07T23:58:50.611Z,29.10
